sensor_id;sensor_type;location;lat;lon;timestamp;pressure;altitude;pressure_sealevel;temperature;humidity
51496;BME280;37572;52.094;4.870;2023-07-31T00:00:26;100972.44;;;21.26;63.33
51496;BME280;37572;52.094;4.870;2023-07-31T00:02:52;100975.75;;;21.28;63.54
51496;BME280;37572;52.094;4.870;2023-07-31T00:05:17;100957.44;;;21.30;63.31
51496;BME280;37572;52.094;4.870;2023-07-31T00:07:43;100952.38;;;21.34;63.48
51496;BME280;37572;52.094;4.870;2023-07-31T00:10:08;100953.81;;;21.36;63.13
51496;BME280;37572;52.094;4.870;2023-07-31T00:12:34;100955.47;;;21.37;63.15
51496;BME280;37572;52.094;4.870;2023-07-31T00:14:59;100951.94;;;21.37;62.96
51496;BME280;37572;52.094;4.870;2023-07-31T00:17:24;100946.31;;;21.38;63.07
51496;BME280;37572;52.094;4.870;2023-07-31T00:19:50;100961.47;;;21.39;63.33
51496;BME280;37572;52.094;4.870;2023-07-31T00:22:16;100955.25;;;21.39;63.19
51496;BME280;37572;52.094;4.870;2023-07-31T00:24:41;100963.16;;;21.40;63.05
51496;BME280;37572;52.094;4.870;2023-07-31T00:27:06;100961.09;;;21.36;62.91
51496;BME280;37572;52.094;4.870;2023-07-31T00:29:32;100956.94;;;21.33;62.90
51496;BME280;37572;52.094;4.870;2023-07-31T00:31:57;100960.34;;;21.29;62.95
51496;BME280;37572;52.094;4.870;2023-07-31T00:34:22;100956.19;;;21.26;63.15
51496;BME280;37572;52.094;4.870;2023-07-31T00:36:47;100965.63;;;21.23;63.07
51496;BME280;37572;52.094;4.870;2023-07-31T00:39:13;100966.66;;;21.22;63.36
51496;BME280;37572;52.094;4.870;2023-07-31T00:41:38;100957.09;;;21.20;63.50
51496;BME280;37572;52.094;4.870;2023-07-31T00:44:04;100960.03;;;21.18;63.13
51496;BME280;37572;52.094;4.870;2023-07-31T00:46:29;100956.50;;;21.18;63.41
51496;BME280;37572;52.094;4.870;2023-07-31T01:31:23;100933.09;;;21.05;63.59
51496;BME280;37572;52.094;4.870;2023-07-31T01:33:50;100934.75;;;21.06;63.63
51496;BME280;37572;52.094;4.870;2023-07-31T01:36:17;100944.31;;;21.09;63.49
51496;BME280;37572;52.094;4.870;2023-07-31T01:38:42;100943.47;;;21.08;63.50
51496;BME280;37572;52.094;4.870;2023-07-31T01:41:07;100942.63;;;21.07;63.22
51496;BME280;37572;52.094;4.870;2023-07-31T01:43:33;100938.72;;;21.03;63.26
51496;BME280;37572;52.094;4.870;2023-07-31T01:45:58;100937.28;;;21.01;63.14
51496;BME280;37572;52.094;4.870;2023-07-31T01:48:23;100926.09;;;20.97;62.94
51496;BME280;37572;52.094;4.870;2023-07-31T01:50:48;100919.44;;;20.93;62.72
51496;BME280;37572;52.094;4.870;2023-07-31T01:53:14;100911.53;;;20.92;63.37
51496;BME280;37572;52.094;4.870;2023-07-31T01:55:40;100908.63;;;20.93;63.15
51496;BME280;37572;52.094;4.870;2023-07-31T01:58:05;100909.69;;;20.92;63.56
51496;BME280;37572;52.094;4.870;2023-07-31T02:00:30;100903.19;;;20.93;63.47
51496;BME280;37572;52.094;4.870;2023-07-31T02:02:56;100911.09;;;20.95;63.20
51496;BME280;37572;52.094;4.870;2023-07-31T02:05:21;100893.22;;;20.94;63.54
51496;BME280;37572;52.094;4.870;2023-07-31T02:07:46;100894.03;;;20.94;63.28
51496;BME280;37572;52.094;4.870;2023-07-31T02:10:11;100886.31;;;20.98;63.35
51496;BME280;37572;52.094;4.870;2023-07-31T02:12:37;100885.03;;;21.00;63.27
51496;BME280;37572;52.094;4.870;2023-07-31T02:15:02;100885.63;;;21.02;63.24
51496;BME280;37572;52.094;4.870;2023-07-31T02:17:28;100878.72;;;21.06;63.36
51496;BME280;37572;52.094;4.870;2023-07-31T02:19:54;100879.34;;;21.09;63.23
51496;BME280;37572;52.094;4.870;2023-07-31T02:22:20;100884.75;;;21.09;62.96
51496;BME280;37572;52.094;4.870;2023-07-31T02:24:45;100877.22;;;21.11;62.94
51496;BME280;37572;52.094;4.870;2023-07-31T02:27:10;100874.28;;;21.12;63.16
51496;BME280;37572;52.094;4.870;2023-07-31T02:29:35;100865.94;;;21.14;62.89
51496;BME280;37572;52.094;4.870;2023-07-31T02:32:01;100878.41;;;21.15;62.99
51496;BME280;37572;52.094;4.870;2023-07-31T02:34:26;100871.38;;;21.14;62.89
51496;BME280;37572;52.094;4.870;2023-07-31T02:36:51;100876.78;;;21.14;62.90
51496;BME280;37572;52.094;4.870;2023-07-31T02:39:16;100871.13;;;21.15;62.89
51496;BME280;37572;52.094;4.870;2023-07-31T02:41:42;100870.06;;;21.16;62.78
51496;BME280;37572;52.094;4.870;2023-07-31T02:44:07;100873.63;;;21.17;62.48
51496;BME280;37572;52.094;4.870;2023-07-31T02:46:32;100863.41;;;21.19;62.58
51496;BME280;37572;52.094;4.870;2023-07-31T02:48:58;100857.97;;;21.19;62.53
51496;BME280;37572;52.094;4.870;2023-07-31T02:51:23;100861.50;;;21.19;62.59
51496;BME280;37572;52.094;4.870;2023-07-31T02:53:48;100854.44;;;21.18;62.33
51496;BME280;37572;52.094;4.870;2023-07-31T02:56:14;100844.44;;;21.19;62.48
51496;BME280;37572;52.094;4.870;2023-07-31T02:58:40;100856.69;;;21.21;62.09
51496;BME280;37572;52.094;4.870;2023-07-31T03:01:05;100850.44;;;21.21;62.26
51496;BME280;37572;52.094;4.870;2023-07-31T03:03:30;100846.69;;;21.22;62.24
51496;BME280;37572;52.094;4.870;2023-07-31T03:05:55;100842.91;;;21.23;62.08
51496;BME280;37572;52.094;4.870;2023-07-31T03:08:21;100831.28;;;21.22;61.76
51496;BME280;37572;52.094;4.870;2023-07-31T03:10:46;100825.84;;;21.22;61.80
51496;BME280;37572;52.094;4.870;2023-07-31T03:13:11;100839.16;;;21.24;61.50
51496;BME280;37572;52.094;4.870;2023-07-31T03:15:37;100835.66;;;21.23;61.44
51496;BME280;37572;52.094;4.870;2023-07-31T03:18:02;100839.41;;;21.22;61.50
51496;BME280;37572;52.094;4.870;2023-07-31T03:20:27;100837.50;;;21.23;61.15
51496;BME280;37572;52.094;4.870;2023-07-31T03:22:53;100839.41;;;21.22;60.96
51496;BME280;37572;52.094;4.870;2023-07-31T03:25:18;100837.50;;;21.23;61.17
51496;BME280;37572;52.094;4.870;2023-07-31T03:27:43;100836.91;;;21.21;61.26
51496;BME280;37572;52.094;4.870;2023-07-31T03:30:09;100833.59;;;21.19;60.81
51496;BME280;37572;52.094;4.870;2023-07-31T03:32:34;100834.66;;;21.18;61.18
51496;BME280;37572;52.094;4.870;2023-07-31T03:34:59;100822.56;;;21.20;60.88
51496;BME280;37572;52.094;4.870;2023-07-31T03:37:25;100821.25;;;21.23;60.62
51496;BME280;37572;52.094;4.870;2023-07-31T03:39:51;100825.63;;;21.24;60.79
51496;BME280;37572;52.094;4.870;2023-07-31T03:42:16;100823.53;;;21.26;60.79
51496;BME280;37572;52.094;4.870;2023-07-31T03:44:41;100820.81;;;21.26;60.85
51496;BME280;37572;52.094;4.870;2023-07-31T03:47:07;100816.91;;;21.22;60.63
51496;BME280;37572;52.094;4.870;2023-07-31T03:49:32;100809.00;;;21.20;61.01
51496;BME280;37572;52.094;4.870;2023-07-31T03:51:57;100810.28;;;21.18;60.75
51496;BME280;37572;52.094;4.870;2023-07-31T03:54:23;100805.94;;;21.17;60.78
51496;BME280;37572;52.094;4.870;2023-07-31T03:56:49;100804.28;;;21.16;60.91
51496;BME280;37572;52.094;4.870;2023-07-31T03:59:14;100802.38;;;21.16;60.93
51496;BME280;37572;52.094;4.870;2023-07-31T04:01:40;100798.84;;;21.16;60.85
51496;BME280;37572;52.094;4.870;2023-07-31T04:04:05;100794.03;;;21.18;61.23
51496;BME280;37572;52.094;4.870;2023-07-31T04:06:30;100795.47;;;21.20;61.13
51496;BME280;37572;52.094;4.870;2023-07-31T04:08:56;100781.09;;;21.20;61.15
51496;BME280;37572;52.094;4.870;2023-07-31T04:11:21;100787.00;;;21.17;61.37
51496;BME280;37572;52.094;4.870;2023-07-31T04:13:47;100781.44;;;21.12;61.22
51496;BME280;37572;52.094;4.870;2023-07-31T04:16:12;100786.53;;;21.01;61.21
51496;BME280;37572;52.094;4.870;2023-07-31T04:18:38;100777.88;;;20.93;61.30
51496;BME280;37572;52.094;4.870;2023-07-31T04:21:03;100774.66;;;20.84;61.49
51496;BME280;37572;52.094;4.870;2023-07-31T04:23:28;100775.78;;;20.76;61.65
51496;BME280;37572;52.094;4.870;2023-07-31T04:25:54;100777.72;;;20.69;61.84
51496;BME280;37572;52.094;4.870;2023-07-31T04:28:19;100779.66;;;20.62;61.94
51496;BME280;37572;52.094;4.870;2023-07-31T04:30:45;100780.53;;;20.56;62.13
51496;BME280;37572;52.094;4.870;2023-07-31T04:33:10;100783.09;;;20.50;62.28
51496;BME280;37572;52.094;4.870;2023-07-31T04:35:35;100780.22;;;20.45;62.49
51496;BME280;37572;52.094;4.870;2023-07-31T04:38:01;100780.66;;;20.42;62.59
51496;BME280;37572;52.094;4.870;2023-07-31T04:40:26;100772.78;;;20.41;62.57
51496;BME280;37572;52.094;4.870;2023-07-31T04:42:51;100766.75;;;20.39;62.83
51496;BME280;37572;52.094;4.870;2023-07-31T04:45:17;100756.38;;;20.36;62.82
51496;BME280;37572;52.094;4.870;2023-07-31T04:47:42;100757.06;;;20.31;63.16
51496;BME280;37572;52.094;4.870;2023-07-31T04:50:08;100757.06;;;20.31;63.02
51496;BME280;37572;52.094;4.870;2023-07-31T04:52:33;100753.31;;;20.32;63.23
51496;BME280;37572;52.094;4.870;2023-07-31T04:54:58;100754.34;;;20.31;62.87
51496;BME280;37572;52.094;4.870;2023-07-31T04:57:24;100747.06;;;20.31;63.14
51496;BME280;37572;52.094;4.870;2023-07-31T04:59:49;100756.81;;;20.32;63.12
51496;BME280;37572;52.094;4.870;2023-07-31T05:02:15;100756.00;;;20.32;63.00
51496;BME280;37572;52.094;4.870;2023-07-31T05:04:40;100753.31;;;20.32;63.44
51496;BME280;37572;52.094;4.870;2023-07-31T05:07:05;100749.38;;;20.28;63.52
51496;BME280;37572;52.094;4.870;2023-07-31T05:09:31;100749.59;;;20.26;63.17
51496;BME280;37572;52.094;4.870;2023-07-31T05:11:56;100747.34;;;20.23;63.56
51496;BME280;37572;52.094;4.870;2023-07-31T05:14:21;100742.78;;;20.24;63.42
51496;BME280;37572;52.094;4.870;2023-07-31T05:16:47;100742.78;;;20.24;63.30
51496;BME280;37572;52.094;4.870;2023-07-31T05:19:12;100736.53;;;20.23;63.55
51496;BME280;37572;52.094;4.870;2023-07-31T05:21:37;100741.09;;;20.23;63.95
51496;BME280;37572;52.094;4.870;2023-07-31T05:24:03;100733.44;;;20.20;63.46
51496;BME280;37572;52.094;4.870;2023-07-31T05:26:28;100729.91;;;20.19;63.65
51496;BME280;37572;52.094;4.870;2023-07-31T05:28:53;100721.22;;;20.17;63.78
51496;BME280;37572;52.094;4.870;2023-07-31T05:31:19;100724.94;;;20.16;63.67
51496;BME280;37572;52.094;4.870;2023-07-31T05:33:46;100716.25;;;20.14;63.75
51496;BME280;37572;52.094;4.870;2023-07-31T05:36:11;100708.72;;;20.16;63.71
51496;BME280;37572;52.094;4.870;2023-07-31T05:38:36;100714.72;;;20.18;63.95
51496;BME280;37572;52.094;4.870;2023-07-31T05:41:01;100712.66;;;20.20;63.83
51496;BME280;37572;52.094;4.870;2023-07-31T05:43:27;100701.22;;;20.18;64.01
51496;BME280;37572;52.094;4.870;2023-07-31T05:45:52;100689.59;;;20.18;64.11
51496;BME280;37572;52.094;4.870;2023-07-31T05:48:17;100695.22;;;20.16;64.31
51496;BME280;37572;52.094;4.870;2023-07-31T05:50:43;100695.44;;;20.14;64.14
51496;BME280;37572;52.094;4.870;2023-07-31T05:53:09;100705.00;;;20.17;64.80
51496;BME280;37572;52.094;4.870;2023-07-31T05:55:35;100693.72;;;20.20;63.90
51496;BME280;37572;52.094;4.870;2023-07-31T05:58:00;100686.22;;;20.22;64.40
51496;BME280;37572;52.094;4.870;2023-07-31T06:00:26;100691.19;;;20.25;64.30
51496;BME280;37572;52.094;4.870;2023-07-31T06:02:52;100686.38;;;20.27;64.27
51496;BME280;37572;52.094;4.870;2023-07-31T06:05:18;100690.28;;;20.31;64.48
51496;BME280;37572;52.094;4.870;2023-07-31T06:07:43;100679.00;;;20.34;64.36
51496;BME280;37572;52.094;4.870;2023-07-31T06:10:08;100683.97;;;20.38;64.39
51496;BME280;37572;52.094;4.870;2023-07-31T06:12:35;100683.53;;;20.41;64.29
51496;BME280;37572;52.094;4.870;2023-07-31T06:15:01;100679.31;;;20.45;64.50
51496;BME280;37572;52.094;4.870;2023-07-31T06:17:27;100680.16;;;20.45;64.33
51496;BME280;37572;52.094;4.870;2023-07-31T06:19:52;100682.66;;;20.47;64.36
51496;BME280;37572;52.094;4.870;2023-07-31T06:22:18;100677.25;;;20.47;64.69
51496;BME280;37572;52.094;4.870;2023-07-31T06:24:44;100676.75;;;20.50;64.38
51496;BME280;37572;52.094;4.870;2023-07-31T06:27:10;100681.94;;;20.51;64.39
51496;BME280;37572;52.094;4.870;2023-07-31T06:29:35;100674.69;;;20.52;64.43
51496;BME280;37572;52.094;4.870;2023-07-31T06:32:00;100667.16;;;20.54;64.26
51496;BME280;37572;52.094;4.870;2023-07-31T06:34:26;100672.56;;;20.54;64.45
51496;BME280;37572;52.094;4.870;2023-07-31T06:36:51;100659.63;;;20.56;64.04
51496;BME280;37572;52.094;4.870;2023-07-31T06:39:16;100663.41;;;20.55;64.60
51496;BME280;37572;52.094;4.870;2023-07-31T06:41:43;100658.38;;;20.59;64.51
51496;BME280;37572;52.094;4.870;2023-07-31T06:44:09;100650.22;;;20.65;64.63
51496;BME280;37572;52.094;4.870;2023-07-31T06:46:34;100656.59;;;20.71;64.43
51496;BME280;37572;52.094;4.870;2023-07-31T06:49:00;100650.72;;;20.74;64.37
51496;BME280;37572;52.094;4.870;2023-07-31T06:51:25;100647.78;;;20.76;64.25
51496;BME280;37572;52.094;4.870;2023-07-31T06:53:50;100640.03;;;20.79;64.64
51496;BME280;37572;52.094;4.870;2023-07-31T06:56:16;100646.28;;;20.80;64.53
51496;BME280;37572;52.094;4.870;2023-07-31T06:58:41;100640.63;;;20.81;64.37
51496;BME280;37572;52.094;4.870;2023-07-31T07:01:06;100639.81;;;20.81;64.52
51496;BME280;37572;52.094;4.870;2023-07-31T07:03:32;100639.00;;;20.80;64.57
51496;BME280;37572;52.094;4.870;2023-07-31T07:05:57;100642.53;;;20.81;64.48
51496;BME280;37572;52.094;4.870;2023-07-31T07:08:24;100638.78;;;20.82;64.64
51496;BME280;37572;52.094;4.870;2023-07-31T07:10:49;100643.56;;;20.80;64.60
51496;BME280;37572;52.094;4.870;2023-07-31T07:13:14;100644.41;;;20.80;64.38
51496;BME280;37572;52.094;4.870;2023-07-31T07:15:40;100642.16;;;20.77;64.46
51496;BME280;37572;52.094;4.870;2023-07-31T07:18:05;100641.09;;;20.78;64.46
51496;BME280;37572;52.094;4.870;2023-07-31T07:20:30;100640.25;;;20.78;64.75
51496;BME280;37572;52.094;4.870;2023-07-31T07:22:56;100638.16;;;20.80;64.71
51496;BME280;37572;52.094;4.870;2023-07-31T07:25:21;100643.09;;;20.83;64.84
51496;BME280;37572;52.094;4.870;2023-07-31T07:27:46;100638.91;;;20.87;64.71
51496;BME280;37572;52.094;4.870;2023-07-31T07:30:11;100630.56;;;20.88;64.50
51496;BME280;37572;52.094;4.870;2023-07-31T07:32:37;100642.34;;;20.94;64.50
51496;BME280;37572;52.094;4.870;2023-07-31T07:35:02;100640.81;;;20.98;64.82
51496;BME280;37572;52.094;4.870;2023-07-31T07:37:28;100642.47;;;20.99;64.54
51496;BME280;37572;52.094;4.870;2023-07-31T07:39:53;100637.66;;;21.01;64.53
51496;BME280;37572;52.094;4.870;2023-07-31T07:42:18;100640.97;;;21.03;64.58
51496;BME280;37572;52.094;4.870;2023-07-31T07:44:44;100637.78;;;21.06;64.92
51496;BME280;37572;52.094;4.870;2023-07-31T07:47:09;100636.75;;;21.07;64.58
51496;BME280;37572;52.094;4.870;2023-07-31T07:49:35;100634.41;;;21.11;64.75
51496;BME280;37572;52.094;4.870;2023-07-31T07:52:01;100640.66;;;21.12;64.40
51496;BME280;37572;52.094;4.870;2023-07-31T07:54:26;100645.59;;;21.15;64.49
51496;BME280;37572;52.094;4.870;2023-07-31T07:56:52;100637.00;;;21.18;64.90
51496;BME280;37572;52.094;4.870;2023-07-31T07:59:17;100634.88;;;21.20;64.77
51496;BME280;37572;52.094;4.870;2023-07-31T08:01:43;100630.09;;;21.22;64.69
51496;BME280;37572;52.094;4.870;2023-07-31T08:04:08;100630.00;;;21.29;64.75
51496;BME280;37572;52.094;4.870;2023-07-31T08:06:33;100620.91;;;21.35;64.80
51496;BME280;37572;52.094;4.870;2023-07-31T08:08:59;100614.34;;;21.42;64.99
51496;BME280;37572;52.094;4.870;2023-07-31T08:11:24;100622.63;;;21.48;64.61
51496;BME280;37572;52.094;4.870;2023-07-31T08:13:50;100615.47;;;21.53;64.66
51496;BME280;37572;52.094;4.870;2023-07-31T08:16:15;100617.09;;;21.54;64.64
51496;BME280;37572;52.094;4.870;2023-07-31T08:18:41;100625.81;;;21.56;64.23
51496;BME280;37572;52.094;4.870;2023-07-31T08:21:08;100619.59;;;21.56;64.52
51496;BME280;37572;52.094;4.870;2023-07-31T08:23:33;100614.16;;;21.56;64.01
51496;BME280;37572;52.094;4.870;2023-07-31T08:25:58;100614.16;;;21.56;64.17
51496;BME280;37572;52.094;4.870;2023-07-31T08:28:24;100611.47;;;21.56;64.85
51496;BME280;37572;52.094;4.870;2023-07-31T08:30:49;100617.47;;;21.58;64.26
51496;BME280;37572;52.094;4.870;2023-07-31T08:33:15;100607.47;;;21.58;64.33
51496;BME280;37572;52.094;4.870;2023-07-31T08:35:41;100617.59;;;21.63;64.42
51496;BME280;37572;52.094;4.870;2023-07-31T08:38:06;100619.00;;;21.66;64.38
51496;BME280;37572;52.094;4.870;2023-07-31T08:40:31;100604.88;;;21.64;64.51
51496;BME280;37572;52.094;4.870;2023-07-31T08:42:57;100616.53;;;21.64;64.23
51496;BME280;37572;52.094;4.870;2023-07-31T08:45:27;100609.84;;;21.67;64.17
51496;BME280;37572;52.094;4.870;2023-07-31T08:47:52;100611.81;;;21.71;64.46
51496;BME280;37572;52.094;4.870;2023-07-31T08:50:19;100618.09;;;21.72;64.52
51496;BME280;37572;52.094;4.870;2023-07-31T08:52:46;100614.06;;;21.74;64.16
51496;BME280;37572;52.094;4.870;2023-07-31T08:55:12;100607.38;;;21.77;64.32
51496;BME280;37572;52.094;4.870;2023-07-31T08:57:39;100617.34;;;21.76;64.52
51496;BME280;37572;52.094;4.870;2023-07-31T09:00:05;100623.63;;;21.77;64.55
51496;BME280;37572;52.094;4.870;2023-07-31T09:02:38;100616.31;;;21.77;64.69
51496;BME280;37572;52.094;4.870;2023-07-31T09:05:06;100616.06;;;21.79;64.64
51496;BME280;37572;52.094;4.870;2023-07-31T09:07:33;100623.75;;;21.82;64.67
51496;BME280;37572;52.094;4.870;2023-07-31T09:09:59;100616.66;;;21.81;64.54
51496;BME280;37572;52.094;4.870;2023-07-31T09:12:25;100613.47;;;21.84;64.17
51496;BME280;37572;52.094;4.870;2023-07-31T09:14:51;100618.66;;;21.86;64.60
51496;BME280;37572;52.094;4.870;2023-07-31T09:17:31;100606.50;;;21.88;64.67
51496;BME280;37572;52.094;4.870;2023-07-31T09:19:57;100610.88;;;21.89;64.66
51496;BME280;37572;52.094;4.870;2023-07-31T09:22:34;100612.06;;;21.93;64.30
51496;BME280;37572;52.094;4.870;2023-07-31T09:25:25;100618.66;;;21.97;64.30
51496;BME280;37572;52.094;4.870;2023-07-31T09:27:53;100606.53;;;22.00;64.52
51496;BME280;37572;52.094;4.870;2023-07-31T09:30:20;100604.97;;;22.04;64.58
51496;BME280;37572;52.094;4.870;2023-07-31T09:32:46;100605.56;;;22.06;64.23
51496;BME280;37572;52.094;4.870;2023-07-31T09:35:14;100605.09;;;22.09;64.16
51496;BME280;37572;52.094;4.870;2023-07-31T09:37:43;100606.28;;;22.13;64.23
51496;BME280;37572;52.094;4.870;2023-07-31T09:40:08;100602.50;;;22.14;64.00
51496;BME280;37572;52.094;4.870;2023-07-31T09:42:34;100609.81;;;22.14;64.14
51496;BME280;37572;52.094;4.870;2023-07-31T09:45:09;100598.97;;;22.14;64.48
51496;BME280;37572;52.094;4.870;2023-07-31T09:47:35;100599.53;;;22.16;64.12
51496;BME280;37572;52.094;4.870;2023-07-31T09:50:00;100596.38;;;22.19;64.08
51496;BME280;37572;52.094;4.870;2023-07-31T09:52:28;100593.41;;;22.21;64.12
51496;BME280;37572;52.094;4.870;2023-07-31T09:54:53;100594.56;;;22.25;64.01
51496;BME280;37572;52.094;4.870;2023-07-31T09:57:21;100600.41;;;22.28;64.25
51496;BME280;37572;52.094;4.870;2023-07-31T09:59:48;100588.22;;;22.31;63.86
51496;BME280;37572;52.094;4.870;2023-07-31T10:02:15;100596.59;;;22.29;64.22
51496;BME280;37572;52.094;4.870;2023-07-31T10:04:48;100593.66;;;22.31;64.29
51496;BME280;37572;52.094;4.870;2023-07-31T10:07:17;100593.19;;;22.34;64.33
51496;BME280;37572;52.094;4.870;2023-07-31T10:09:43;100593.63;;;22.43;63.68
51496;BME280;37572;52.094;4.870;2023-07-31T10:12:12;100593.72;;;22.48;63.74
51496;BME280;37572;52.094;4.870;2023-07-31T10:14:41;100601.16;;;22.52;63.67
51496;BME280;37572;52.094;4.870;2023-07-31T10:17:07;100605.28;;;22.55;64.02
51496;BME280;37572;52.094;4.870;2023-07-31T10:19:34;100599.63;;;22.57;63.71
51496;BME280;37572;52.094;4.870;2023-07-31T10:22:00;100602.31;;;22.57;63.86
51496;BME280;37572;52.094;4.870;2023-07-31T10:24:27;100600.66;;;22.56;63.56
51496;BME280;37572;52.094;4.870;2023-07-31T10:26:57;100598.28;;;22.59;64.05
51496;BME280;37572;52.094;4.870;2023-07-31T10:29:24;100591.66;;;22.67;64.23
51496;BME280;37572;52.094;4.870;2023-07-31T10:31:50;100592.34;;;22.74;64.03
51496;BME280;37572;52.094;4.870;2023-07-31T10:34:16;100591.72;;;22.84;63.65
51496;BME280;37572;52.094;4.870;2023-07-31T10:36:41;100598.03;;;22.89;63.96
51496;BME280;37572;52.094;4.870;2023-07-31T10:39:33;100597.66;;;22.98;63.90
51496;BME280;37572;52.094;4.870;2023-07-31T10:41:59;100597.16;;;23.01;63.56
51496;BME280;37572;52.094;4.870;2023-07-31T10:44:24;100595.03;;;23.03;63.57
51496;BME280;37572;52.094;4.870;2023-07-31T10:46:54;100596.69;;;23.04;63.48
51496;BME280;37572;52.094;4.870;2023-07-31T10:49:21;100589.59;;;23.03;62.91
51496;BME280;37572;52.094;4.870;2023-07-31T10:51:47;100592.31;;;23.03;63.27
51496;BME280;37572;52.094;4.870;2023-07-31T10:54:16;100587.38;;;23.00;62.45
51496;BME280;37572;52.094;4.870;2023-07-31T10:56:46;100595.19;;;22.96;62.61
51496;BME280;37572;52.094;4.870;2023-07-31T10:59:13;100588.84;;;22.90;62.54
51496;BME280;37572;52.094;4.870;2023-07-31T11:01:54;100599.94;;;22.89;62.59
51496;BME280;37572;52.094;4.870;2023-07-31T11:04:26;100589.34;;;22.87;62.73
51496;BME280;37572;52.094;4.870;2023-07-31T11:06:59;100594.28;;;22.90;62.52
51496;BME280;37572;52.094;4.870;2023-07-31T11:09:27;100588.13;;;22.95;62.68
51496;BME280;37572;52.094;4.870;2023-07-31T11:11:55;100591.75;;;23.01;62.74
51496;BME280;37572;52.094;4.870;2023-07-31T11:14:21;100580.41;;;23.04;62.50
51496;BME280;37572;52.094;4.870;2023-07-31T11:16:49;100577.09;;;23.02;62.39
51496;BME280;37572;52.094;4.870;2023-07-31T11:19:14;100583.13;;;23.04;62.67
51496;BME280;37572;52.094;4.870;2023-07-31T11:21:40;100573.91;;;23.05;62.46
51496;BME280;37572;52.094;4.870;2023-07-31T11:24:05;100576.97;;;23.08;62.79
51496;BME280;37572;52.094;4.870;2023-07-31T11:26:30;100571.88;;;23.12;62.55
51496;BME280;37572;52.094;4.870;2023-07-31T11:28:56;100581.19;;;23.16;63.32
51496;BME280;37572;52.094;4.870;2023-07-31T11:31:21;100575.25;;;23.19;62.79
51496;BME280;37572;52.094;4.870;2023-07-31T11:33:47;100572.53;;;23.19;62.42
51496;BME280;37572;52.094;4.870;2023-07-31T11:36:20;100576.34;;;23.18;62.90
51496;BME280;37572;52.094;4.870;2023-07-31T11:38:46;100567.59;;;23.16;62.79
51496;BME280;37572;52.094;4.870;2023-07-31T11:41:14;100574.69;;;23.17;62.96
51496;BME280;37572;52.094;4.870;2023-07-31T11:43:39;100571.47;;;23.20;63.10
51496;BME280;37572;52.094;4.870;2023-07-31T11:46:05;100564.16;;;23.21;63.02
51496;BME280;37572;52.094;4.870;2023-07-31T11:48:34;100567.69;;;23.21;62.60
51496;BME280;37572;52.094;4.870;2023-07-31T11:51:02;100574.19;;;23.20;62.36
51496;BME280;37572;52.094;4.870;2023-07-31T11:53:51;100583.41;;;23.19;62.43
51496;BME280;37572;52.094;4.870;2023-07-31T11:56:18;100573.34;;;23.20;62.36
51496;BME280;37572;52.094;4.870;2023-07-31T11:58:46;100578.28;;;23.23;62.82
51496;BME280;37572;52.094;4.870;2023-07-31T12:01:12;100587.03;;;23.25;62.76
51496;BME280;37572;52.094;4.870;2023-07-31T12:03:39;100586.19;;;23.24;62.04
51496;BME280;37572;52.094;4.870;2023-07-31T12:06:05;100593.44;;;23.19;62.04
51496;BME280;37572;52.094;4.870;2023-07-31T12:08:31;100586.38;;;23.18;62.72
51496;BME280;37572;52.094;4.870;2023-07-31T12:11:05;100572.53;;;23.19;62.34
51496;BME280;37572;52.094;4.870;2023-07-31T12:13:31;100578.91;;;23.25;62.50
51496;BME280;37572;52.094;4.870;2023-07-31T12:15:59;100574.38;;;23.31;62.50
51496;BME280;37572;52.094;4.870;2023-07-31T12:18:26;100564.63;;;23.35;62.57
51496;BME280;37572;52.094;4.870;2023-07-31T12:20:59;100546.78;;;23.39;62.62
51496;BME280;37572;52.094;4.870;2023-07-31T12:23:26;100547.91;;;23.43;62.48
51496;BME280;37572;52.094;4.870;2023-07-31T12:26:06;100549.09;;;23.47;62.20
51496;BME280;37572;52.094;4.870;2023-07-31T12:31:02;100543.25;;;23.55;61.89
51496;BME280;37572;52.094;4.870;2023-07-31T12:33:32;100536.47;;;23.58;61.69
51496;BME280;37572;52.094;4.870;2023-07-31T12:35:59;100547.66;;;23.61;62.09
51496;BME280;37572;52.094;4.870;2023-07-31T12:38:25;100543.38;;;23.65;61.95
51496;BME280;37572;52.094;4.870;2023-07-31T12:40:50;100546.16;;;23.71;61.84
51496;BME280;37572;52.094;4.870;2023-07-31T12:43:16;100527.72;;;23.73;61.70
51496;BME280;37572;52.094;4.870;2023-07-31T12:45:41;100535.88;;;23.73;61.18
51496;BME280;37572;52.094;4.870;2023-07-31T12:48:07;100527.22;;;23.76;61.35
51496;BME280;37572;52.094;4.870;2023-07-31T12:50:32;100517.50;;;23.80;61.80
51496;BME280;37572;52.094;4.870;2023-07-31T12:52:57;100516.50;;;23.86;61.27
51496;BME280;37572;52.094;4.870;2023-07-31T12:55:23;100523.41;;;23.94;61.40
51496;BME280;37572;52.094;4.870;2023-07-31T12:57:49;100522.16;;;24.01;61.34
51496;BME280;37572;52.094;4.870;2023-07-31T13:00:14;100528.72;;;24.06;61.07
51496;BME280;37572;52.094;4.870;2023-07-31T13:02:40;100529.84;;;24.10;60.78
51496;BME280;37572;52.094;4.870;2023-07-31T13:05:05;100519.56;;;24.12;61.10
51496;BME280;37572;52.094;4.870;2023-07-31T13:07:31;100526.06;;;24.11;61.09
51496;BME280;37572;52.094;4.870;2023-07-31T13:09:56;100521.78;;;24.15;60.90
51496;BME280;37572;52.094;4.870;2023-07-31T13:12:22;100508.75;;;24.17;61.00
51496;BME280;37572;52.094;4.870;2023-07-31T13:14:47;100512.84;;;24.19;61.17
51496;BME280;37572;52.094;4.870;2023-07-31T13:17:12;100499.03;;;24.26;60.69
51496;BME280;37572;52.094;4.870;2023-07-31T13:19:37;100500.19;;;24.30;60.57
51496;BME280;37572;52.094;4.870;2023-07-31T13:22:03;100499.09;;;24.31;60.55
51496;BME280;37572;52.094;4.870;2023-07-31T13:24:29;100482.22;;;24.29;60.10
51496;BME280;37572;52.094;4.870;2023-07-31T13:26:55;100500.38;;;24.24;60.71
51496;BME280;37572;52.094;4.870;2023-07-31T13:29:20;100500.28;;;24.13;60.81